New Orleans, Louisiana
Traffic Map
Current Weather Conditions
New Orleans, Louisiana
Clear
Clear
64°
Feels Like: 64°
Wind Chill: 64° Ceiling: Unl
Heat Index: 64° Visibility: 10mi
Dew Point: 55° Wind: 12mph
Humidity: 72% Direction: 120° (ESE)
Pressure: 30.1in Gusts: 0mph
Raw Report DataKNEW 270053Z AUTO 12010KT 10SM CLR 18/13 A3010 RMK AO2 SLP187 T01780128
Traffic Incident Summary
Active as of:
Severity:
Category:
InformationThere was an issue retrieving the traffic information for this location. Please try a different location or try again shortly.
Advertisements
Track Severe Weather on mobile